sensor_id;sensor_type;location;lat;lon;timestamp;pressure;altitude;pressure_sealevel;temperature;humidity
37068;BME280;22982;42.848;25.468;2022-08-19T20:02:23;95919.91;;;20.25;96.63
37068;BME280;22982;42.848;25.468;2022-08-19T20:07:29;95910.44;;;20.31;95.92
37068;BME280;22982;42.848;25.468;2022-08-19T20:12:51;95912.69;;;20.09;97.26
37068;BME280;22982;42.848;25.468;2022-08-19T20:17:53;95912.78;;;20.25;96.59
37068;BME280;22982;42.848;25.468;2022-08-19T20:22:56;95928.19;;;20.05;98.04
37068;BME280;22982;42.848;25.468;2022-08-19T20:28:01;95922.66;;;19.73;100.00
37068;BME280;22982;42.848;25.468;2022-08-19T20:33:07;95913.41;;;19.77;99.04
37068;BME280;22982;42.848;25.468;2022-08-19T20:38:09;95922.06;;;19.79;99.08
37068;BME280;22982;42.848;25.468;2022-08-19T20:43:12;95941.66;;;19.78;98.83
37068;BME280;22982;42.848;25.468;2022-08-19T20:48:15;95930.56;;;19.38;100.00
37068;BME280;22982;42.848;25.468;2022-08-19T20:53:19;95942.38;;;19.36;100.00
37068;BME280;22982;42.848;25.468;2022-08-19T20:58:25;95932.47;;;19.02;100.00
37068;BME280;22982;42.848;25.468;2022-08-19T21:03:32;95947.28;;;18.86;100.00
37068;BME280;22982;42.848;25.468;2022-08-19T21:08:44;95948.78;;;19.07;100.00
37068;BME280;22982;42.848;25.468;2022-08-19T21:13:57;95946.09;;;18.71;100.00
37068;BME280;22982;42.848;25.468;2022-08-19T21:19:03;95950.09;;;18.57;100.00
37068;BME280;22982;42.848;25.468;2022-08-19T21:24:06;95948.09;;;19.05;100.00
37068;BME280;22982;42.848;25.468;2022-08-19T21:29:08;95944.91;;;19.01;100.00
37068;BME280;22982;42.848;25.468;2022-08-19T21:34:10;95939.22;;;19.14;100.00
37068;BME280;22982;42.848;25.468;2022-08-19T21:39:13;95937.31;;;19.24;100.00
37068;BME280;22982;42.848;25.468;2022-08-19T21:44:18;95946.13;;;19.07;100.00
37068;BME280;22982;42.848;25.468;2022-08-19T21:49:21;95937.72;;;18.93;100.00
37068;BME280;22982;42.848;25.468;2022-08-19T21:54:24;95942.00;;;19.12;100.00
37068;BME280;22982;42.848;25.468;2022-08-19T21:59:26;95940.50;;;19.10;100.00
37068;BME280;22982;42.848;25.468;2022-08-19T22:04:28;95942.66;;;19.32;100.00
37068;BME280;22982;42.848;25.468;2022-08-19T22:09:30;95945.16;;;19.08;100.00
37068;BME280;22982;42.848;25.468;2022-08-19T22:14:37;95940.00;;;18.88;100.00
37068;BME280;22982;42.848;25.468;2022-08-19T22:19:39;95929.78;;;18.20;100.00
37068;BME280;22982;42.848;25.468;2022-08-19T22:24:44;95940.56;;;18.18;100.00
37068;BME280;22982;42.848;25.468;2022-08-19T22:29:46;95943.00;;;18.75;100.00
37068;BME280;22982;42.848;25.468;2022-08-19T22:34:53;95932.31;;;18.85;100.00
37068;BME280;22982;42.848;25.468;2022-08-19T22:39:57;95928.72;;;18.59;100.00
37068;BME280;22982;42.848;25.468;2022-08-19T22:45:02;95908.63;;;18.10;100.00
37068;BME280;22982;42.848;25.468;2022-08-19T22:50:05;95932.59;;;17.91;100.00
37068;BME280;22982;42.848;25.468;2022-08-19T22:55:14;95930.03;;;17.62;100.00
37068;BME280;22982;42.848;25.468;2022-08-19T23:00:21;95922.91;;;17.62;100.00
37068;BME280;22982;42.848;25.468;2022-08-19T23:05:25;95921.75;;;17.65;100.00
37068;BME280;22982;42.848;25.468;2022-08-19T23:10:27;95914.34;;;17.68;100.00
37068;BME280;22982;42.848;25.468;2022-08-19T23:15:30;95911.28;;;17.73;100.00
37068;BME280;22982;42.848;25.468;2022-08-19T23:20:35;95915.81;;;17.90;100.00
37068;BME280;22982;42.848;25.468;2022-08-19T23:25:39;95922.13;;;17.79;100.00
37068;BME280;22982;42.848;25.468;2022-08-19T23:30:43;95906.50;;;17.86;100.00
37068;BME280;22982;42.848;25.468;2022-08-19T23:35:46;95892.94;;;17.52;100.00
37068;BME280;22982;42.848;25.468;2022-08-19T23:40:51;95897.13;;;17.45;100.00
37068;BME280;22982;42.848;25.468;2022-08-19T23:45:54;95902.56;;;17.53;100.00
37068;BME280;22982;42.848;25.468;2022-08-19T23:51:00;95901.28;;;17.57;100.00
37068;BME280;22982;42.848;25.468;2022-08-19T23:56:04;95901.00;;;17.60;100.00
